sensor_id;sensor_type;location;lat;lon;timestamp;P1;durP1;ratioP1;P2;durP2;ratioP2
10432;SDS011;5263;48.680;9.004;2023-09-08T00:02:04;12.10;;;5.80;;
10432;SDS011;5263;48.680;9.004;2023-09-08T00:04:29;5.77;;;5.17;;
10432;SDS011;5263;48.680;9.004;2023-09-08T00:06:55;6.43;;;5.83;;
10432;SDS011;5263;48.680;9.004;2023-09-08T00:09:20;7.57;;;6.03;;
10432;SDS011;5263;48.680;9.004;2023-09-08T00:11:46;5.70;;;5.30;;
10432;SDS011;5263;48.680;9.004;2023-09-08T00:14:12;6.00;;;5.27;;
10432;SDS011;5263;48.680;9.004;2023-09-08T00:16:37;5.27;;;4.83;;
10432;SDS011;5263;48.680;9.004;2023-09-08T00:19:04;5.97;;;5.37;;
10432;SDS011;5263;48.680;9.004;2023-09-08T00:21:29;5.90;;;5.37;;
10432;SDS011;5263;48.680;9.004;2023-09-08T00:23:55;7.17;;;5.20;;
10432;SDS011;5263;48.680;9.004;2023-09-08T00:26:21;4.93;;;4.53;;
10432;SDS011;5263;48.680;9.004;2023-09-08T00:28:47;5.73;;;5.23;;
10432;SDS011;5263;48.680;9.004;2023-09-08T00:31:13;5.20;;;4.70;;
10432;SDS011;5263;48.680;9.004;2023-09-08T00:33:39;9.33;;;5.37;;
10432;SDS011;5263;48.680;9.004;2023-09-08T00:36:05;7.10;;;5.30;;
10432;SDS011;5263;48.680;9.004;2023-09-08T00:38:31;4.87;;;4.57;;
10432;SDS011;5263;48.680;9.004;2023-09-08T00:40:57;5.30;;;4.80;;
10432;SDS011;5263;48.680;9.004;2023-09-08T00:43:24;7.97;;;5.37;;
10432;SDS011;5263;48.680;9.004;2023-09-08T00:45:49;5.50;;;5.10;;
10432;SDS011;5263;48.680;9.004;2023-09-08T00:48:15;4.70;;;4.30;;
10432;SDS011;5263;48.680;9.004;2023-09-08T00:50:41;6.07;;;4.33;;
10432;SDS011;5263;48.680;9.004;2023-09-08T00:53:06;5.23;;;4.03;;
10432;SDS011;5263;48.680;9.004;2023-09-08T00:55:33;5.33;;;4.90;;
10432;SDS011;5263;48.680;9.004;2023-09-08T00:57:59;5.57;;;5.17;;
10432;SDS011;5263;48.680;9.004;2023-09-08T01:00:26;5.70;;;5.20;;
10432;SDS011;5263;48.680;9.004;2023-09-08T01:02:52;6.17;;;5.23;;
10432;SDS011;5263;48.680;9.004;2023-09-08T01:05:18;5.67;;;5.20;;
10432;SDS011;5263;48.680;9.004;2023-09-08T01:07:44;6.17;;;5.53;;
10432;SDS011;5263;48.680;9.004;2023-09-08T01:10:12;5.13;;;4.73;;
10432;SDS011;5263;48.680;9.004;2023-09-08T01:12:38;5.60;;;5.10;;
10432;SDS011;5263;48.680;9.004;2023-09-08T01:15:04;7.07;;;5.50;;
10432;SDS011;5263;48.680;9.004;2023-09-08T01:17:30;6.73;;;4.97;;
10432;SDS011;5263;48.680;9.004;2023-09-08T01:19:56;5.33;;;4.93;;
10432;SDS011;5263;48.680;9.004;2023-09-08T01:25:27;7.57;;;5.43;;
10432;SDS011;5263;48.680;9.004;2023-09-08T01:27:55;5.70;;;5.30;;
10432;SDS011;5263;48.680;9.004;2023-09-08T01:30:24;8.63;;;5.53;;
10432;SDS011;5263;48.680;9.004;2023-09-08T01:32:53;6.30;;;5.23;;
10432;SDS011;5263;48.680;9.004;2023-09-08T01:35:20;5.30;;;4.80;;
10432;SDS011;5263;48.680;9.004;2023-09-08T01:37:46;6.20;;;5.60;;
10432;SDS011;5263;48.680;9.004;2023-09-08T01:40:13;5.93;;;5.33;;
10432;SDS011;5263;48.680;9.004;2023-09-08T01:42:40;5.67;;;5.10;;
10432;SDS011;5263;48.680;9.004;2023-09-08T01:45:06;5.40;;;4.90;;
10432;SDS011;5263;48.680;9.004;2023-09-08T01:47:32;5.23;;;4.83;;
10432;SDS011;5263;48.680;9.004;2023-09-08T01:49:58;7.03;;;5.87;;
10432;SDS011;5263;48.680;9.004;2023-09-08T01:52:24;5.57;;;5.00;;
10432;SDS011;5263;48.680;9.004;2023-09-08T01:54:50;5.97;;;5.50;;
10432;SDS011;5263;48.680;9.004;2023-09-08T01:57:16;7.57;;;5.63;;
10432;SDS011;5263;48.680;9.004;2023-09-08T01:59:42;6.30;;;4.90;;
10432;SDS011;5263;48.680;9.004;2023-09-08T02:02:08;10.50;;;6.73;;
10432;SDS011;5263;48.680;9.004;2023-09-08T02:04:33;5.80;;;5.30;;
10432;SDS011;5263;48.680;9.004;2023-09-08T02:06:59;5.73;;;5.23;;
10432;SDS011;5263;48.680;9.004;2023-09-08T02:09:31;6.40;;;5.07;;
10432;SDS011;5263;48.680;9.004;2023-09-08T02:11:58;6.73;;;6.13;;
10432;SDS011;5263;48.680;9.004;2023-09-08T02:14:23;7.13;;;6.53;;
10432;SDS011;5263;48.680;9.004;2023-09-08T02:16:49;6.37;;;5.87;;
10432;SDS011;5263;48.680;9.004;2023-09-08T02:19:14;6.83;;;6.23;;
10432;SDS011;5263;48.680;9.004;2023-09-08T02:21:40;5.17;;;4.80;;
10432;SDS011;5263;48.680;9.004;2023-09-08T02:24:06;7.73;;;5.77;;
10432;SDS011;5263;48.680;9.004;2023-09-08T02:26:31;5.33;;;4.93;;
10432;SDS011;5263;48.680;9.004;2023-09-08T02:28:58;10.67;;;5.00;;
10432;SDS011;5263;48.680;9.004;2023-09-08T02:31:25;5.97;;;5.47;;
10432;SDS011;5263;48.680;9.004;2023-09-08T02:33:52;5.37;;;4.87;;
10432;SDS011;5263;48.680;9.004;2023-09-08T02:36:18;6.50;;;5.90;;
10432;SDS011;5263;48.680;9.004;2023-09-08T02:38:50;6.53;;;5.93;;
10432;SDS011;5263;48.680;9.004;2023-09-08T02:41:19;6.07;;;5.50;;
10432;SDS011;5263;48.680;9.004;2023-09-08T02:43:45;6.03;;;5.53;;
10432;SDS011;5263;48.680;9.004;2023-09-08T02:46:11;6.50;;;6.00;;
10432;SDS011;5263;48.680;9.004;2023-09-08T02:48:36;5.10;;;4.70;;
10432;SDS011;5263;48.680;9.004;2023-09-08T02:51:02;6.83;;;6.33;;
10432;SDS011;5263;48.680;9.004;2023-09-08T02:53:28;6.80;;;6.10;;
10432;SDS011;5263;48.680;9.004;2023-09-08T02:55:57;7.37;;;6.67;;
10432;SDS011;5263;48.680;9.004;2023-09-08T02:58:23;7.87;;;6.30;;
10432;SDS011;5263;48.680;9.004;2023-09-08T03:00:50;6.07;;;5.37;;
10432;SDS011;5263;48.680;9.004;2023-09-08T03:03:18;9.30;;;6.33;;
10432;SDS011;5263;48.680;9.004;2023-09-08T03:05:44;6.47;;;5.87;;
10432;SDS011;5263;48.680;9.004;2023-09-08T03:08:10;5.50;;;5.10;;
10432;SDS011;5263;48.680;9.004;2023-09-08T03:10:36;6.20;;;5.70;;
10432;SDS011;5263;48.680;9.004;2023-09-08T03:13:02;5.50;;;5.10;;
10432;SDS011;5263;48.680;9.004;2023-09-08T03:15:30;5.90;;;5.27;;
10432;SDS011;5263;48.680;9.004;2023-09-08T03:17:56;7.50;;;6.60;;
10432;SDS011;5263;48.680;9.004;2023-09-08T03:20:26;7.50;;;5.43;;
10432;SDS011;5263;48.680;9.004;2023-09-08T03:22:52;5.63;;;5.13;;
10432;SDS011;5263;48.680;9.004;2023-09-08T03:25:18;6.47;;;5.70;;
10432;SDS011;5263;48.680;9.004;2023-09-08T03:27:43;5.77;;;5.17;;
10432;SDS011;5263;48.680;9.004;2023-09-08T03:30:09;6.30;;;5.80;;
10432;SDS011;5263;48.680;9.004;2023-09-08T03:32:35;5.80;;;5.43;;
10432;SDS011;5263;48.680;9.004;2023-09-08T03:35:01;4.60;;;4.30;;
10432;SDS011;5263;48.680;9.004;2023-09-08T03:37:28;6.00;;;4.90;;
10432;SDS011;5263;48.680;9.004;2023-09-08T03:39:54;6.20;;;5.13;;
10432;SDS011;5263;48.680;9.004;2023-09-08T03:42:20;5.17;;;4.80;;
10432;SDS011;5263;48.680;9.004;2023-09-08T03:44:45;5.20;;;4.87;;
10432;SDS011;5263;48.680;9.004;2023-09-08T03:47:11;5.40;;;4.90;;
10432;SDS011;5263;48.680;9.004;2023-09-08T03:49:36;5.40;;;4.90;;
10432;SDS011;5263;48.680;9.004;2023-09-08T03:52:02;7.13;;;5.57;;
10432;SDS011;5263;48.680;9.004;2023-09-08T03:54:28;6.27;;;5.70;;
10432;SDS011;5263;48.680;9.004;2023-09-08T03:56:53;6.07;;;5.47;;
10432;SDS011;5263;48.680;9.004;2023-09-08T03:59:19;6.53;;;5.30;;
10432;SDS011;5263;48.680;9.004;2023-09-08T04:01:44;6.90;;;6.30;;
10432;SDS011;5263;48.680;9.004;2023-09-08T04:04:10;6.70;;;6.10;;
10432;SDS011;5263;48.680;9.004;2023-09-08T04:06:35;7.63;;;5.77;;
10432;SDS011;5263;48.680;9.004;2023-09-08T04:09:01;7.83;;;5.67;;
10432;SDS011;5263;48.680;9.004;2023-09-08T04:11:27;5.07;;;4.73;;
10432;SDS011;5263;48.680;9.004;2023-09-08T04:13:52;6.17;;;5.67;;
10432;SDS011;5263;48.680;9.004;2023-09-08T04:16:18;5.97;;;5.47;;
10432;SDS011;5263;48.680;9.004;2023-09-08T04:18:43;7.10;;;6.50;;
10432;SDS011;5263;48.680;9.004;2023-09-08T04:21:09;6.93;;;5.23;;
10432;SDS011;5263;48.680;9.004;2023-09-08T04:23:35;4.83;;;4.53;;
10432;SDS011;5263;48.680;9.004;2023-09-08T04:26:01;6.93;;;5.73;;
10432;SDS011;5263;48.680;9.004;2023-09-08T04:28:27;7.33;;;5.63;;
10432;SDS011;5263;48.680;9.004;2023-09-08T04:30:52;5.43;;;4.93;;
10432;SDS011;5263;48.680;9.004;2023-09-08T04:33:18;4.73;;;4.33;;
10432;SDS011;5263;48.680;9.004;2023-09-08T04:35:44;6.17;;;5.67;;
10432;SDS011;5263;48.680;9.004;2023-09-08T04:38:10;4.20;;;3.93;;
10432;SDS011;5263;48.680;9.004;2023-09-08T04:40:36;5.47;;;4.97;;
10432;SDS011;5263;48.680;9.004;2023-09-08T04:43:05;6.23;;;4.90;;
10432;SDS011;5263;48.680;9.004;2023-09-08T04:45:30;5.87;;;5.37;;
10432;SDS011;5263;48.680;9.004;2023-09-08T04:47:56;5.03;;;4.63;;
10432;SDS011;5263;48.680;9.004;2023-09-08T04:50:21;5.17;;;4.60;;
10432;SDS011;5263;48.680;9.004;2023-09-08T04:52:47;6.77;;;4.73;;
10432;SDS011;5263;48.680;9.004;2023-09-08T04:55:13;5.93;;;5.37;;
10432;SDS011;5263;48.680;9.004;2023-09-08T04:57:38;6.33;;;5.43;;
10432;SDS011;5263;48.680;9.004;2023-09-08T05:00:04;27.43;;;10.53;;
10432;SDS011;5263;48.680;9.004;2023-09-08T05:02:30;17.47;;;8.97;;
10432;SDS011;5263;48.680;9.004;2023-09-08T05:04:56;6.17;;;5.57;;
10432;SDS011;5263;48.680;9.004;2023-09-08T05:07:21;11.23;;;6.13;;
10432;SDS011;5263;48.680;9.004;2023-09-08T05:09:47;5.93;;;5.13;;
10432;SDS011;5263;48.680;9.004;2023-09-08T05:12:13;13.07;;;7.00;;
10432;SDS011;5263;48.680;9.004;2023-09-08T05:14:38;7.77;;;5.43;;
10432;SDS011;5263;48.680;9.004;2023-09-08T05:17:04;5.43;;;4.93;;
10432;SDS011;5263;48.680;9.004;2023-09-08T05:19:30;9.53;;;5.40;;
10432;SDS011;5263;48.680;9.004;2023-09-08T05:21:55;4.93;;;4.43;;
10432;SDS011;5263;48.680;9.004;2023-09-08T05:24:21;6.33;;;4.97;;
10432;SDS011;5263;48.680;9.004;2023-09-08T05:26:47;8.23;;;6.10;;
10432;SDS011;5263;48.680;9.004;2023-09-08T05:29:13;5.40;;;4.90;;
10432;SDS011;5263;48.680;9.004;2023-09-08T05:31:39;6.20;;;5.20;;
10432;SDS011;5263;48.680;9.004;2023-09-08T05:34:04;5.07;;;4.67;;
10432;SDS011;5263;48.680;9.004;2023-09-08T05:36:30;8.57;;;5.67;;
10432;SDS011;5263;48.680;9.004;2023-09-08T05:38:58;6.63;;;5.53;;
10432;SDS011;5263;48.680;9.004;2023-09-08T05:41:24;12.67;;;6.20;;
10432;SDS011;5263;48.680;9.004;2023-09-08T05:43:50;9.20;;;6.13;;
10432;SDS011;5263;48.680;9.004;2023-09-08T05:46:15;6.70;;;5.93;;
10432;SDS011;5263;48.680;9.004;2023-09-08T05:48:42;5.87;;;5.33;;
10432;SDS011;5263;48.680;9.004;2023-09-08T05:51:07;6.30;;;5.80;;
10432;SDS011;5263;48.680;9.004;2023-09-08T05:53:33;7.70;;;6.17;;
10432;SDS011;5263;48.680;9.004;2023-09-08T05:56:00;8.73;;;5.57;;
10432;SDS011;5263;48.680;9.004;2023-09-08T05:58:26;7.90;;;5.33;;
10432;SDS011;5263;48.680;9.004;2023-09-08T06:00:52;5.83;;;5.33;;
10432;SDS011;5263;48.680;9.004;2023-09-08T06:03:19;6.00;;;5.50;;
10432;SDS011;5263;48.680;9.004;2023-09-08T06:05:44;8.07;;;5.90;;
10432;SDS011;5263;48.680;9.004;2023-09-08T06:08:10;7.43;;;6.20;;
10432;SDS011;5263;48.680;9.004;2023-09-08T06:10:36;5.67;;;5.17;;
10432;SDS011;5263;48.680;9.004;2023-09-08T06:13:03;5.73;;;5.23;;
10432;SDS011;5263;48.680;9.004;2023-09-08T06:15:28;6.77;;;5.80;;
10432;SDS011;5263;48.680;9.004;2023-09-08T06:17:54;7.53;;;5.97;;
10432;SDS011;5263;48.680;9.004;2023-09-08T06:20:20;6.97;;;5.47;;
10432;SDS011;5263;48.680;9.004;2023-09-08T06:22:46;10.97;;;6.53;;
10432;SDS011;5263;48.680;9.004;2023-09-08T06:25:12;7.77;;;5.70;;
10432;SDS011;5263;48.680;9.004;2023-09-08T06:27:37;7.43;;;6.33;;
10432;SDS011;5263;48.680;9.004;2023-09-08T06:30:04;6.83;;;5.60;;
10432;SDS011;5263;48.680;9.004;2023-09-08T06:32:30;7.00;;;5.73;;
10432;SDS011;5263;48.680;9.004;2023-09-08T06:34:55;6.47;;;5.87;;
10432;SDS011;5263;48.680;9.004;2023-09-08T06:37:21;6.83;;;6.13;;
10432;SDS011;5263;48.680;9.004;2023-09-08T06:39:46;6.23;;;5.73;;
10432;SDS011;5263;48.680;9.004;2023-09-08T06:42:12;7.57;;;6.80;;
10432;SDS011;5263;48.680;9.004;2023-09-08T06:44:38;12.67;;;9.03;;
10432;SDS011;5263;48.680;9.004;2023-09-08T06:47:03;8.20;;;6.63;;
10432;SDS011;5263;48.680;9.004;2023-09-08T06:49:31;12.27;;;5.93;;
10432;SDS011;5263;48.680;9.004;2023-09-08T06:51:57;9.63;;;5.27;;
10432;SDS011;5263;48.680;9.004;2023-09-08T06:54:23;10.33;;;6.17;;
10432;SDS011;5263;48.680;9.004;2023-09-08T06:56:48;5.97;;;4.97;;
10432;SDS011;5263;48.680;9.004;2023-09-08T06:59:14;6.73;;;6.03;;
10432;SDS011;5263;48.680;9.004;2023-09-08T07:01:40;6.97;;;5.33;;
10432;SDS011;5263;48.680;9.004;2023-09-08T07:04:05;12.43;;;6.23;;
10432;SDS011;5263;48.680;9.004;2023-09-08T07:06:31;8.97;;;5.63;;
10432;SDS011;5263;48.680;9.004;2023-09-08T07:08:56;6.07;;;5.57;;
10432;SDS011;5263;48.680;9.004;2023-09-08T07:11:22;7.67;;;5.90;;
10432;SDS011;5263;48.680;9.004;2023-09-08T07:13:48;12.70;;;5.37;;
10432;SDS011;5263;48.680;9.004;2023-09-08T07:16:13;7.13;;;4.97;;
10432;SDS011;5263;48.680;9.004;2023-09-08T07:18:39;7.40;;;5.37;;
10432;SDS011;5263;48.680;9.004;2023-09-08T07:21:05;7.07;;;5.87;;
10432;SDS011;5263;48.680;9.004;2023-09-08T07:23:31;7.43;;;6.10;;
10432;SDS011;5263;48.680;9.004;2023-09-08T07:25:56;5.67;;;5.20;;
10432;SDS011;5263;48.680;9.004;2023-09-08T07:28:22;7.30;;;4.80;;
10432;SDS011;5263;48.680;9.004;2023-09-08T07:30:48;8.00;;;5.47;;
10432;SDS011;5263;48.680;9.004;2023-09-08T07:33:13;7.10;;;5.33;;
10432;SDS011;5263;48.680;9.004;2023-09-08T07:35:39;13.17;;;5.57;;
10432;SDS011;5263;48.680;9.004;2023-09-08T07:38:05;5.47;;;5.07;;
10432;SDS011;5263;48.680;9.004;2023-09-08T07:40:32;5.80;;;5.40;;
10432;SDS011;5263;48.680;9.004;2023-09-08T07:42:58;5.63;;;5.13;;
10432;SDS011;5263;48.680;9.004;2023-09-08T07:45:23;6.40;;;5.83;;
10432;SDS011;5263;48.680;9.004;2023-09-08T07:47:49;7.37;;;5.03;;
10432;SDS011;5263;48.680;9.004;2023-09-08T07:50:15;5.97;;;5.37;;
10432;SDS011;5263;48.680;9.004;2023-09-08T07:52:43;5.97;;;5.57;;
10432;SDS011;5263;48.680;9.004;2023-09-08T07:55:09;7.40;;;4.80;;
10432;SDS011;5263;48.680;9.004;2023-09-08T07:57:34;6.80;;;5.70;;
10432;SDS011;5263;48.680;9.004;2023-09-08T08:00:00;5.60;;;5.20;;
10432;SDS011;5263;48.680;9.004;2023-09-08T08:02:26;6.30;;;5.70;;
10432;SDS011;5263;48.680;9.004;2023-09-08T08:04:52;6.73;;;5.20;;
10432;SDS011;5263;48.680;9.004;2023-09-08T08:07:17;5.53;;;5.13;;
10432;SDS011;5263;48.680;9.004;2023-09-08T08:09:43;5.20;;;4.70;;
10432;SDS011;5263;48.680;9.004;2023-09-08T08:12:08;5.87;;;5.37;;
10432;SDS011;5263;48.680;9.004;2023-09-08T08:14:34;5.40;;;5.00;;
10432;SDS011;5263;48.680;9.004;2023-09-08T08:16:59;6.10;;;4.97;;
10432;SDS011;5263;48.680;9.004;2023-09-08T08:19:25;5.73;;;5.27;;
10432;SDS011;5263;48.680;9.004;2023-09-08T08:21:51;4.63;;;4.23;;
10432;SDS011;5263;48.680;9.004;2023-09-08T08:24:17;5.80;;;4.40;;
10432;SDS011;5263;48.680;9.004;2023-09-08T08:26:42;4.63;;;4.33;;
10432;SDS011;5263;48.680;9.004;2023-09-08T08:29:08;7.17;;;4.40;;
10432;SDS011;5263;48.680;9.004;2023-09-08T08:31:33;4.63;;;4.23;;
10432;SDS011;5263;48.680;9.004;2023-09-08T08:33:59;4.37;;;4.10;;
10432;SDS011;5263;48.680;9.004;2023-09-08T08:36:24;4.17;;;3.97;;
10432;SDS011;5263;48.680;9.004;2023-09-08T08:38:50;3.77;;;3.50;;
10432;SDS011;5263;48.680;9.004;2023-09-08T08:41:15;4.67;;;4.33;;
10432;SDS011;5263;48.680;9.004;2023-09-08T08:43:41;4.43;;;4.03;;
10432;SDS011;5263;48.680;9.004;2023-09-08T08:46:09;4.20;;;3.97;;
10432;SDS011;5263;48.680;9.004;2023-09-08T08:48:36;3.50;;;3.27;;
10432;SDS011;5263;48.680;9.004;2023-09-08T08:51:02;4.43;;;4.17;;
10432;SDS011;5263;48.680;9.004;2023-09-08T08:53:29;4.77;;;4.10;;
10432;SDS011;5263;48.680;9.004;2023-09-08T08:55:56;5.03;;;4.63;;
10432;SDS011;5263;48.680;9.004;2023-09-08T08:58:24;4.67;;;4.27;;
10432;SDS011;5263;48.680;9.004;2023-09-08T09:00:52;4.63;;;3.70;;
10432;SDS011;5263;48.680;9.004;2023-09-08T09:03:19;4.90;;;4.40;;
10432;SDS011;5263;48.680;9.004;2023-09-08T09:05:46;9.47;;;8.67;;
10432;SDS011;5263;48.680;9.004;2023-09-08T09:08:11;4.30;;;3.70;;
10432;SDS011;5263;48.680;9.004;2023-09-08T09:10:38;3.93;;;3.63;;
10432;SDS011;5263;48.680;9.004;2023-09-08T09:13:04;7.10;;;4.03;;
10432;SDS011;5263;48.680;9.004;2023-09-08T09:15:30;7.10;;;4.30;;
10432;SDS011;5263;48.680;9.004;2023-09-08T09:18:07;3.93;;;3.60;;
10432;SDS011;5263;48.680;9.004;2023-09-08T09:20:33;4.07;;;3.77;;
10432;SDS011;5263;48.680;9.004;2023-09-08T09:22:59;4.23;;;3.90;;
10432;SDS011;5263;48.680;9.004;2023-09-08T09:25:26;4.90;;;4.07;;
10432;SDS011;5263;48.680;9.004;2023-09-08T09:27:53;9.90;;;4.30;;
10432;SDS011;5263;48.680;9.004;2023-09-08T09:30:21;4.67;;;4.20;;
10432;SDS011;5263;48.680;9.004;2023-09-08T09:32:47;4.40;;;4.07;;
10432;SDS011;5263;48.680;9.004;2023-09-08T09:35:16;4.80;;;3.97;;
10432;SDS011;5263;48.680;9.004;2023-09-08T09:37:42;4.27;;;3.90;;
10432;SDS011;5263;48.680;9.004;2023-09-08T09:40:08;4.20;;;3.80;;
10432;SDS011;5263;48.680;9.004;2023-09-08T09:42:37;9.63;;;4.10;;
10432;SDS011;5263;48.680;9.004;2023-09-08T09:45:05;4.03;;;3.73;;
10432;SDS011;5263;48.680;9.004;2023-09-08T09:47:31;4.87;;;4.47;;
10432;SDS011;5263;48.680;9.004;2023-09-08T09:49:57;4.23;;;3.70;;
10432;SDS011;5263;48.680;9.004;2023-09-08T09:52:23;7.60;;;3.50;;
10432;SDS011;5263;48.680;9.004;2023-09-08T09:54:52;5.20;;;4.27;;
10432;SDS011;5263;48.680;9.004;2023-09-08T09:57:20;8.27;;;3.97;;
10432;SDS011;5263;48.680;9.004;2023-09-08T09:59:46;4.27;;;3.90;;
10432;SDS011;5263;48.680;9.004;2023-09-08T10:02:15;3.60;;;3.10;;
10432;SDS011;5263;48.680;9.004;2023-09-08T10:04:45;3.03;;;2.83;;
10432;SDS011;5263;48.680;9.004;2023-09-08T10:07:14;3.72;;;3.42;;
10432;SDS011;5263;48.680;9.004;2023-09-08T10:09:41;4.25;;;3.85;;
10432;SDS011;5263;48.680;9.004;2023-09-08T10:12:07;3.10;;;2.97;;
10432;SDS011;5263;48.680;9.004;2023-09-08T10:14:37;3.78;;;3.05;;
10432;SDS011;5263;48.680;9.004;2023-09-08T10:17:07;2.65;;;2.55;;
10432;SDS011;5263;48.680;9.004;2023-09-08T10:19:36;3.60;;;3.40;;
10432;SDS011;5263;48.680;9.004;2023-09-08T10:22:06;3.25;;;3.05;;
10432;SDS011;5263;48.680;9.004;2023-09-08T10:24:37;4.28;;;4.00;;
10432;SDS011;5263;48.680;9.004;2023-09-08T10:27:07;4.13;;;3.80;;
10432;SDS011;5263;48.680;9.004;2023-09-08T10:29:35;4.25;;;3.67;;
10432;SDS011;5263;48.680;9.004;2023-09-08T10:32:01;2.92;;;2.83;;
10432;SDS011;5263;48.680;9.004;2023-09-08T10:34:28;3.05;;;2.85;;
10432;SDS011;5263;48.680;9.004;2023-09-08T10:36:55;2.85;;;2.65;;
10432;SDS011;5263;48.680;9.004;2023-09-08T10:39:31;4.25;;;3.22;;
10432;SDS011;5263;48.680;9.004;2023-09-08T10:47:19;5.88;;;3.30;;
10432;SDS011;5263;48.680;9.004;2023-09-08T10:49:47;6.93;;;3.25;;
10432;SDS011;5263;48.680;9.004;2023-09-08T10:52:12;4.97;;;3.97;;
10432;SDS011;5263;48.680;9.004;2023-09-08T10:54:45;3.40;;;2.85;;
10432;SDS011;5263;48.680;9.004;2023-09-08T10:57:14;4.43;;;4.15;;
10432;SDS011;5263;48.680;9.004;2023-09-08T10:59:44;4.47;;;4.18;;
10432;SDS011;5263;48.680;9.004;2023-09-08T11:02:31;3.25;;;3.05;;
10432;SDS011;5263;48.680;9.004;2023-09-08T11:05:12;3.53;;;3.17;;
10432;SDS011;5263;48.680;9.004;2023-09-08T11:07:40;3.88;;;3.17;;
10432;SDS011;5263;48.680;9.004;2023-09-08T11:10:10;3.47;;;3.03;;
10432;SDS011;5263;48.680;9.004;2023-09-08T11:12:37;3.90;;;3.70;;
10432;SDS011;5263;48.680;9.004;2023-09-08T11:15:04;3.78;;;3.45;;
10432;SDS011;5263;48.680;9.004;2023-09-08T11:17:32;4.95;;;3.55;;
10432;SDS011;5263;48.680;9.004;2023-09-08T11:20:00;3.78;;;3.47;;
10432;SDS011;5263;48.680;9.004;2023-09-08T11:22:33;2.85;;;2.65;;
10432;SDS011;5263;48.680;9.004;2023-09-08T11:24:59;3.70;;;3.40;;
10432;SDS011;5263;48.680;9.004;2023-09-08T11:27:29;3.00;;;2.90;;
10432;SDS011;5263;48.680;9.004;2023-09-08T11:29:55;5.15;;;3.20;;
10432;SDS011;5263;48.680;9.004;2023-09-08T11:32:21;3.47;;;3.20;;
10432;SDS011;5263;48.680;9.004;2023-09-08T11:34:47;4.22;;;3.05;;
10432;SDS011;5263;48.680;9.004;2023-09-08T11:37:14;3.55;;;3.35;;
10432;SDS011;5263;48.680;9.004;2023-09-08T11:39:41;4.65;;;3.33;;
10432;SDS011;5263;48.680;9.004;2023-09-08T11:42:11;3.00;;;2.70;;
10432;SDS011;5263;48.680;9.004;2023-09-08T11:44:38;3.08;;;2.83;;
10432;SDS011;5263;48.680;9.004;2023-09-08T11:47:08;6.22;;;3.22;;
10432;SDS011;5263;48.680;9.004;2023-09-08T11:49:35;5.40;;;3.17;;
10432;SDS011;5263;48.680;9.004;2023-09-08T11:52:02;3.33;;;3.03;;
10432;SDS011;5263;48.680;9.004;2023-09-08T11:54:29;2.85;;;2.60;;
10432;SDS011;5263;48.680;9.004;2023-09-08T11:56:57;2.55;;;2.45;;
10432;SDS011;5263;48.680;9.004;2023-09-08T11:59:25;2.70;;;2.33;;
10432;SDS011;5263;48.680;9.004;2023-09-08T12:01:52;4.88;;;3.08;;
10432;SDS011;5263;48.680;9.004;2023-09-08T12:04:18;2.92;;;2.72;;
10432;SDS011;5263;48.680;9.004;2023-09-08T12:06:51;4.13;;;3.03;;
10432;SDS011;5263;48.680;9.004;2023-09-08T12:09:17;2.85;;;2.75;;
10432;SDS011;5263;48.680;9.004;2023-09-08T12:11:43;3.85;;;3.20;;
10432;SDS011;5263;48.680;9.004;2023-09-08T12:14:10;3.00;;;2.80;;
10432;SDS011;5263;48.680;9.004;2023-09-08T12:16:37;3.58;;;3.38;;
10432;SDS011;5263;48.680;9.004;2023-09-08T12:19:03;3.22;;;2.88;;
10432;SDS011;5263;48.680;9.004;2023-09-08T12:21:29;3.78;;;3.28;;
10432;SDS011;5263;48.680;9.004;2023-09-08T12:23:56;4.97;;;3.25;;
10432;SDS011;5263;48.680;9.004;2023-09-08T12:26:24;3.55;;;3.30;;
10432;SDS011;5263;48.680;9.004;2023-09-08T12:28:50;10.20;;;2.95;;
10432;SDS011;5263;48.680;9.004;2023-09-08T12:31:17;3.83;;;3.53;;
10432;SDS011;5263;48.680;9.004;2023-09-08T12:33:42;4.25;;;3.28;;
10432;SDS011;5263;48.680;9.004;2023-09-08T12:36:12;5.93;;;4.28;;
10432;SDS011;5263;48.680;9.004;2023-09-08T12:38:39;3.60;;;3.42;;
10432;SDS011;5263;48.680;9.004;2023-09-08T12:41:05;3.15;;;2.90;;
10432;SDS011;5263;48.680;9.004;2023-09-08T12:43:31;3.78;;;3.47;;
10432;SDS011;5263;48.680;9.004;2023-09-08T12:45:56;6.45;;;4.03;;
10432;SDS011;5263;48.680;9.004;2023-09-08T12:48:22;4.38;;;4.07;;
10432;SDS011;5263;48.680;9.004;2023-09-08T12:50:48;4.78;;;4.20;;
10432;SDS011;5263;48.680;9.004;2023-09-08T12:53:15;3.60;;;3.35;;
10432;SDS011;5263;48.680;9.004;2023-09-08T12:55:42;4.00;;;3.55;;
10432;SDS011;5263;48.680;9.004;2023-09-08T12:58:08;4.50;;;4.15;;
10432;SDS011;5263;48.680;9.004;2023-09-08T13:00:33;4.47;;;4.18;;
10432;SDS011;5263;48.680;9.004;2023-09-08T13:02:59;4.93;;;4.10;;
10432;SDS011;5263;48.680;9.004;2023-09-08T13:05:26;3.60;;;3.40;;
10432;SDS011;5263;48.680;9.004;2023-09-08T13:07:52;4.55;;;4.25;;
10432;SDS011;5263;48.680;9.004;2023-09-08T13:10:18;4.45;;;4.15;;
10432;SDS011;5263;48.680;9.004;2023-09-08T13:12:45;4.78;;;4.47;;
10432;SDS011;5263;48.680;9.004;2023-09-08T13:15:10;4.75;;;4.35;;
10432;SDS011;5263;48.680;9.004;2023-09-08T13:17:36;4.38;;;4.07;;
10432;SDS011;5263;48.680;9.004;2023-09-08T13:20:02;4.82;;;4.43;;
10432;SDS011;5263;48.680;9.004;2023-09-08T13:22:28;5.57;;;4.20;;
10432;SDS011;5263;48.680;9.004;2023-09-08T13:24:54;4.63;;;4.20;;
10432;SDS011;5263;48.680;9.004;2023-09-08T13:27:20;3.90;;;3.70;;
10432;SDS011;5263;48.680;9.004;2023-09-08T13:29:45;5.03;;;4.63;;
10432;SDS011;5263;48.680;9.004;2023-09-08T13:32:11;13.57;;;4.88;;
10432;SDS011;5263;48.680;9.004;2023-09-08T13:34:36;5.30;;;4.88;;
10432;SDS011;5263;48.680;9.004;2023-09-08T13:37:03;5.05;;;4.45;;
10432;SDS011;5263;48.680;9.004;2023-09-08T13:39:29;5.65;;;5.05;;
10432;SDS011;5263;48.680;9.004;2023-09-08T13:41:55;6.60;;;4.57;;
10432;SDS011;5263;48.680;9.004;2023-09-08T13:44:22;4.57;;;4.20;;
10432;SDS011;5263;48.680;9.004;2023-09-08T13:46:52;3.92;;;3.75;;
10432;SDS011;5263;48.680;9.004;2023-09-08T13:49:19;5.15;;;4.78;;
10432;SDS011;5263;48.680;9.004;2023-09-08T13:51:45;4.95;;;4.57;;
10432;SDS011;5263;48.680;9.004;2023-09-08T13:54:11;4.53;;;4.22;;
10432;SDS011;5263;48.680;9.004;2023-09-08T13:56:40;6.40;;;4.00;;
10432;SDS011;5263;48.680;9.004;2023-09-08T13:59:06;4.72;;;4.47;;
10432;SDS011;5263;48.680;9.004;2023-09-08T14:01:33;5.00;;;4.68;;
10432;SDS011;5263;48.680;9.004;2023-09-08T14:03:59;5.53;;;5.13;;
10432;SDS011;5263;48.680;9.004;2023-09-08T14:06:26;4.05;;;3.65;;
10432;SDS011;5263;48.680;9.004;2023-09-08T14:08:52;4.65;;;4.25;;
10432;SDS011;5263;48.680;9.004;2023-09-08T14:11:18;4.63;;;4.30;;
10432;SDS011;5263;48.680;9.004;2023-09-08T14:13:44;4.18;;;3.90;;
10432;SDS011;5263;48.680;9.004;2023-09-08T14:16:11;4.47;;;4.03;;
10432;SDS011;5263;48.680;9.004;2023-09-08T14:18:36;6.30;;;4.78;;
10432;SDS011;5263;48.680;9.004;2023-09-08T14:21:02;4.70;;;4.40;;
10432;SDS011;5263;48.680;9.004;2023-09-08T14:23:29;4.88;;;4.47;;
10432;SDS011;5263;48.680;9.004;2023-09-08T14:25:54;5.43;;;4.65;;
10432;SDS011;5263;48.680;9.004;2023-09-08T14:28:20;4.72;;;4.38;;
10432;SDS011;5263;48.680;9.004;2023-09-08T14:30:46;4.85;;;4.55;;
10432;SDS011;5263;48.680;9.004;2023-09-08T14:33:11;8.60;;;4.43;;
10432;SDS011;5263;48.680;9.004;2023-09-08T14:35:41;4.90;;;4.50;;
10432;SDS011;5263;48.680;9.004;2023-09-08T14:38:08;4.43;;;4.03;;
10432;SDS011;5263;48.680;9.004;2023-09-08T14:40:34;3.88;;;3.67;;
10432;SDS011;5263;48.680;9.004;2023-09-08T14:42:59;5.15;;;4.75;;
10432;SDS011;5263;48.680;9.004;2023-09-08T14:45:25;4.65;;;3.80;;
10432;SDS011;5263;48.680;9.004;2023-09-08T14:47:52;4.40;;;4.00;;
10432;SDS011;5263;48.680;9.004;2023-09-08T14:50:18;3.88;;;3.67;;
10432;SDS011;5263;48.680;9.004;2023-09-08T14:52:44;5.05;;;4.43;;
10432;SDS011;5263;48.680;9.004;2023-09-08T14:55:09;6.55;;;4.20;;
10432;SDS011;5263;48.680;9.004;2023-09-08T14:57:35;4.40;;;4.10;;
10432;SDS011;5263;48.680;9.004;2023-09-08T15:00:02;4.63;;;4.32;;
10432;SDS011;5263;48.680;9.004;2023-09-08T15:02:29;4.95;;;4.25;;
10432;SDS011;5263;48.680;9.004;2023-09-08T15:04:55;4.63;;;3.70;;